Wakkanai-shi, Japan

9:53 AM JST on December 29, 2014 (GMT +0900)
Wakkanai | Change Station
CLOSE
Current Station
Airport
Location: Wakkanai Airport,
Elevation: 36 ft
Nearby Weather Stations

Elev 36 ft 45.40 °N, 141.80 °E | Updated 53 minutes ago

Mostly Cloudy
Mostly Cloudy
30 °F
Feels Like 23 °F
N
8
Wind Variable Wind from SSE

Today
High -- | Low -- °F
--% Chance of Precip.
Yesterday
High -- | Low -- °F
Precip. -- in
7:12 AM 3:57 PM
First Quarter, 53% visible
Pressure 29.71 in
Visibility 6.2 miles
Clouds Few 3000 ft
Scattered Clouds 4500 ft
Mostly Cloudy 6000 ft
Windchill 23 °F
Dew Point 27 °F
Humidity 86%
Rainfall 0.00 in
Snow Depth Not available.
UV 0 out of 12
Pollen Not available.
Air Quality Not available.
Flu Activity Not available.
METAR RJCW 290000Z 15007KT 9999 FEW030 SCT045 BKN060 M01/M03 Q1006

More Conditions Fewer Conditions

Pressure 29.71 in
Visibility 6.2 miles
Clouds Few 3000 ft
Scattered Clouds 4500 ft
Mostly Cloudy 6000 ft
Windchill 23 °F
Dew Point 27 °F
Humidity 86%
Rainfall 0.00 in
Snow Depth Not available.
UV 0 out of 12
Pollen Not available.
Air Quality Not available.
Flu Activity Not available.
METAR RJCW 290000Z 15007KT 9999 FEW030 SCT045 BKN060 M01/M03 Q1006

More Conditions Fewer Conditions

10-Day Weather Forecast

Almanac

Astronomy

Dec. 29, 2014 Rise Set
Actual Time
Civil Twilight
Nautical Twilight
Astronomical Twilight
Moon
Length of Visible Light
Length of Day
Tomorrow will be .
, % of the Moon is Illuminated

Today's Extremes

Country Highs Country Lows

Community

WunderPhotos

Upload Photos

1,781,477 photos uploaded!

WunderBlogs® & News

Nearby

Air Quality

  Air Quality AQ Index Pollutant
Not available.

Snow Depth

Station Depth Elevation

Earthquake Activity

City Distance Mag. Time & Date
Minimum magnitude displayed is 2.5.

Coastal Water Temperatures

Place Temperature

Nearby Weather Stations